Time;durP1;ratioP1;P1;durP2;ratioP2;P2;SDS_P1;SDS_P2;PMS_P1;PMS_P2;Temp;Humidity;BMP_temperature;BMP_pressure;BME280_temperature;BME280_humidity;BME280_pressure;Samples;Min_cycle;Max_cycle;Signal;HPM_P1;HPM_P2
2023/10/06 00:01:44;;;;;;;13.77;5.85;;;13.90;99.90;;;;;;5097871;28;20047;-46
2023/10/06 00:04:12;;;;;;;12.35;6.55;;;13.90;99.90;;;;;;5095147;28;20453;-45
2023/10/06 00:06:45;;;;;;;14.15;5.25;;;13.90;99.90;;;;;;5096350;28;20031;-47
2023/10/06 00:09:28;;;;;;;11.68;6.00;;;13.80;99.90;;;;;;5098366;28;20583;-45
2023/10/06 00:11:55;;;;;;;13.52;5.45;;;13.80;99.90;;;;;;5098701;28;20044;-47
2023/10/06 00:14:39;;;;;;;15.77;6.03;;;13.80;99.90;;;;;;5098707;28;20118;-45
2023/10/06 00:17:28;;;;;;;12.07;6.00;;;13.80;99.90;;;;;;5098208;28;20035;-46
2023/10/06 00:19:56;;;;;;;17.48;6.53;;;13.80;99.90;;;;;;5099056;28;20456;-44
2023/10/06 00:22:26;;;;;;;14.07;6.43;;;13.80;99.90;;;;;;5099233;28;20061;-47
2023/10/06 00:24:55;;;;;;;10.88;5.65;;;13.80;99.90;;;;;;5096808;28;20063;-44
2023/10/06 00:27:24;;;;;;;12.73;6.10;;;13.80;99.90;;;;;;5098624;28;20119;-44
2023/10/06 00:29:56;;;;;;;11.63;5.63;;;13.80;99.90;;;;;;5097584;28;20142;-44
2023/10/06 00:32:23;;;;;;;13.40;6.85;;;13.80;99.90;;;;;;5098918;28;20043;-47
2023/10/06 00:34:50;;;;;;;14.32;6.43;;;13.80;99.90;;;;;;5098388;28;20047;-47
2023/10/06 00:37:16;;;;;;;13.95;6.18;;;13.80;99.90;;;;;;5096595;28;20059;-45
2023/10/06 00:39:43;;;;;;;12.25;6.63;;;13.80;99.90;;;;;;5097282;28;20146;-47
2023/10/06 00:42:13;;;;;;;12.13;5.97;;;13.90;99.90;;;;;;5096811;28;20050;-46
2023/10/06 00:44:39;;;;;;;18.83;6.82;;;13.80;99.90;;;;;;5084355;28;20146;-45
2023/10/06 00:47:06;;;;;;;19.60;6.57;;;13.80;99.90;;;;;;5097993;28;20075;-44
2023/10/06 00:49:35;;;;;;;13.98;6.22;;;13.80;99.90;;;;;;5097371;28;20135;-44
2023/10/06 00:52:01;;;;;;;18.50;7.88;;;13.80;99.90;;;;;;5096699;28;20032;-46
2023/10/06 00:54:27;;;;;;;19.15;6.57;;;13.80;99.90;;;;;;5096369;28;20039;-44
2023/10/06 00:56:58;;;;;;;15.82;7.03;;;13.80;99.90;;;;;;5098151;28;20070;-45
2023/10/06 00:59:24;;;;;;;11.40;6.10;;;13.80;99.90;;;;;;5096857;28;20054;-44
2023/10/06 01:01:52;;;;;;;16.63;7.00;;;13.80;99.90;;;;;;5096047;28;20051;-45
2023/10/06 01:04:19;;;;;;;17.00;6.78;;;13.80;99.90;;;;;;5097361;28;20039;-46
2023/10/06 01:06:45;;;;;;;13.20;6.43;;;13.80;99.90;;;;;;5097865;28;20086;-46
2023/10/06 01:11:40;;;;;;;15.32;7.00;;;13.80;99.90;;;;;;5102013;28;20559;-46
2023/10/06 01:14:07;;;;;;;15.18;6.78;;;13.80;99.90;;;;;;5121544;27;20075;-47
2023/10/06 01:16:34;;;;;;;15.25;7.45;;;13.80;99.90;;;;;;5099336;28;20221;-44
2023/10/06 01:19:14;;;;;;;15.43;7.30;;;13.80;99.90;;;;;;5102143;28;20140;-49
2023/10/06 01:21:56;;;;;;;16.35;6.85;;;13.80;99.90;;;;;;5100334;28;20086;-45
2023/10/06 01:24:26;;;;;;;16.67;7.45;;;13.80;99.90;;;;;;5101844;28;20263;-45
2023/10/06 01:27:05;;;;;;;14.85;7.50;;;13.80;99.90;;;;;;5101357;28;20078;-45
2023/10/06 01:29:31;;;;;;;13.68;7.55;;;13.80;99.90;;;;;;5100823;28;20043;-45
2023/10/06 01:31:58;;;;;;;17.50;7.82;;;13.80;99.90;;;;;;5101854;28;20031;-46
2023/10/06 02:30:55;;;;;;;18.88;8.45;;;13.90;99.90;;;;;;4998369;28;20398;-47
2023/10/06 02:33:20;;;;;;;15.95;7.90;;;13.90;99.90;;;;;;5000378;28;20061;-48
2023/10/06 02:35:46;;;;;;;20.88;8.82;;;13.90;99.90;;;;;;4981920;28;20493;-46
2023/10/06 02:38:12;;;;;;;18.40;8.40;;;13.90;99.90;;;;;;4982990;28;20115;-45
2023/10/06 02:40:44;;;;;;;16.05;8.80;;;13.90;99.90;;;;;;5000622;28;20426;-45
2023/10/06 02:43:13;;;;;;;17.17;8.98;;;13.90;99.90;;;;;;4997799;28;20081;-44
2023/10/06 02:45:42;;;;;;;17.20;10.15;;;13.90;99.90;;;;;;4999429;28;20117;-46
2023/10/06 02:48:17;;;;;;;14.68;8.25;;;13.90;99.90;;;;;;4999168;28;20554;-45
2023/10/06 02:50:45;;;;;;;15.80;8.93;;;13.80;99.90;;;;;;4982597;28;21044;-46
2023/10/06 02:53:20;;;;;;;20.48;8.95;;;13.80;99.90;;;;;;5000115;28;20067;-44
2023/10/06 02:55:48;;;;;;;22.38;9.70;;;13.80;99.90;;;;;;4982011;28;20080;-45
2023/10/06 02:58:25;;;;;;;21.98;10.23;;;13.80;99.90;;;;;;5000318;28;20042;-45
2023/10/06 03:00:50;;;;;;;17.85;10.95;;;13.70;99.90;;;;;;4962730;28;20754;-45
2023/10/06 03:03:18;;;;;;;24.08;11.68;;;13.70;99.90;;;;;;4995430;28;20124;-46
2023/10/06 03:05:49;;;;;;;21.50;11.52;;;13.70;99.90;;;;;;4981010;28;20734;-45
2023/10/06 03:08:20;;;;;;;21.45;11.82;;;13.70;99.90;;;;;;4996980;28;20287;-45
2023/10/06 03:10:49;;;;;;;19.58;12.27;;;13.60;99.90;;;;;;5000012;28;20037;-45
2023/10/06 03:13:24;;;;;;;19.40;11.95;;;13.60;99.90;;;;;;4981806;28;20041;-44
2023/10/06 03:15:50;;;;;;;24.77;13.40;;;13.60;99.90;;;;;;4981661;28;20461;-44
2023/10/06 03:18:17;;;;;;;19.50;12.18;;;13.60;99.90;;;;;;4977612;28;20438;-46
2023/10/06 03:20:49;;;;;;;24.95;12.93;;;13.60;99.90;;;;;;4981762;28;20544;-45
2023/10/06 03:26:04;;;;;;;27.00;13.13;;;13.60;99.90;;;;;;4998884;28;20155;-48
2023/10/06 03:28:42;;;;;;;26.40;14.13;;;13.60;99.90;;;;;;5000832;28;20045;-44
2023/10/06 03:33:44;;;;;;;23.73;13.07;;;13.60;99.90;;;;;;5018519;28;20041;-46
2023/10/06 03:36:11;;;;;;;21.58;13.00;;;13.70;99.90;;;;;;5018027;28;20574;-44
2023/10/06 03:38:42;;;;;;;21.40;14.13;;;13.70;99.90;;;;;;4985169;28;20456;-45
2023/10/06 03:41:24;;;;;;;21.90;12.90;;;13.70;99.90;;;;;;5001115;28;20591;-45
2023/10/06 03:43:55;;;;;;;21.25;13.07;;;13.70;99.90;;;;;;5019083;28;20045;-45
2023/10/06 03:46:22;;;;;;;20.27;12.70;;;13.80;99.90;;;;;;5000537;28;20067;-46
2023/10/06 03:48:51;;;;;;;22.50;12.43;;;13.70;99.90;;;;;;5018989;28;20060;-44
2023/10/06 03:51:18;;;;;;;18.33;11.48;;;13.70;99.90;;;;;;4984762;28;20037;-44
2023/10/06 03:53:45;;;;;;;23.48;12.63;;;13.70;99.90;;;;;;5018899;28;20041;-44
2023/10/06 03:56:16;;;;;;;25.65;12.68;;;13.80;99.90;;;;;;5018005;28;20181;-46
2023/10/06 03:58:43;;;;;;;23.13;12.43;;;13.80;99.90;;;;;;5000613;28;20056;-45
2023/10/06 04:01:11;;;;;;;21.13;10.98;;;13.80;99.90;;;;;;5016847;28;20476;-44
2023/10/06 04:03:38;;;;;;;20.85;11.30;;;13.80;99.90;;;;;;4994588;28;20045;-47
2023/10/06 04:06:04;;;;;;;17.98;10.40;;;13.80;99.90;;;;;;5017645;28;20049;-46
2023/10/06 04:08:30;;;;;;;23.05;10.60;;;13.80;99.90;;;;;;5000707;28;20045;-45
2023/10/06 04:10:58;;;;;;;22.02;11.63;;;13.80;99.90;;;;;;5000720;28;20056;-45
2023/10/06 04:13:25;;;;;;;21.10;10.15;;;13.80;99.90;;;;;;5019161;28;20213;-45
2023/10/06 04:15:52;;;;;;;20.15;10.10;;;13.80;99.90;;;;;;5017790;28;20045;-45
2023/10/06 04:18:21;;;;;;;13.02;9.27;;;13.80;99.90;;;;;;5001032;28;20467;-44
2023/10/06 04:20:48;;;;;;;17.98;9.60;;;13.80;99.90;;;;;;4999970;28;20420;-44
2023/10/06 04:23:17;;;;;;;21.80;10.02;;;13.90;99.90;;;;;;4999981;28;20045;-44
2023/10/06 04:25:44;;;;;;;20.13;9.95;;;13.90;99.90;;;;;;5017382;28;20395;-46
2023/10/06 04:28:13;;;;;;;23.52;9.32;;;13.90;99.90;;;;;;5000409;28;20562;-44
2023/10/06 04:30:42;;;;;;;18.83;9.15;;;13.90;99.90;;;;;;5018370;28;20061;-45
2023/10/06 04:33:11;;;;;;;18.25;9.23;;;13.90;99.90;;;;;;5000669;28;20512;-44
2023/10/06 04:35:42;;;;;;;15.80;8.90;;;13.90;99.90;;;;;;5017283;28;20385;-44
2023/10/06 04:38:10;;;;;;;13.50;9.15;;;13.90;99.90;;;;;;5000671;28;20053;-45
2023/10/06 04:40:41;;;;;;;22.90;9.98;;;13.90;99.90;;;;;;5018562;28;20120;-47
2023/10/06 04:43:07;;;;;;;19.02;8.65;;;13.90;99.90;;;;;;5005107;28;20049;-45
2023/10/06 04:45:33;;;;;;;17.40;8.60;;;13.90;99.90;;;;;;5004322;28;20076;-44
2023/10/06 04:48:02;;;;;;;16.63;7.72;;;13.90;99.90;;;;;;5022760;28;20693;-45
2023/10/06 04:50:29;;;;;;;18.23;8.75;;;14.00;99.90;;;;;;5004355;28;20049;-45
2023/10/06 04:52:58;;;;;;;17.35;8.13;;;13.90;99.90;;;;;;5004238;28;20243;-45
2023/10/06 04:55:24;;;;;;;15.10;7.97;;;13.90;99.90;;;;;;4978051;28;20049;-46
2023/10/06 04:57:49;;;;;;;14.32;8.65;;;13.90;99.90;;;;;;5022022;28;20049;-46
2023/10/06 05:00:19;;;;;;;17.42;8.15;;;14.00;99.90;;;;;;5003736;28;20491;-45
2023/10/06 05:02:50;;;;;;;17.58;8.02;;;14.00;99.90;;;;;;5013969;28;20531;-45
2023/10/06 05:05:26;;;;;;;19.60;8.32;;;14.00;99.90;;;;;;5021377;28;20041;-47
2023/10/06 05:07:53;;;;;;;15.40;7.95;;;14.00;99.90;;;;;;5004291;28;20568;-44
2023/10/06 05:10:25;;;;;;;17.98;8.60;;;14.10;99.90;;;;;;5004462;28;20056;-47
2023/10/06 05:12:52;;;;;;;16.38;8.15;;;14.10;99.90;;;;;;5004111;28;20365;-46
2023/10/06 05:15:23;;;;;;;20.63;8.52;;;14.10;99.90;;;;;;5021769;28;20428;-46
2023/10/06 05:17:56;;;;;;;18.73;7.82;;;14.10;99.90;;;;;;5004033;28;20092;-45
2023/10/06 05:20:42;;;;;;;20.17;8.27;;;14.10;99.90;;;;;;5004264;28;20064;-44
2023/10/06 05:23:14;;;;;;;19.95;8.90;;;14.10;99.90;;;;;;4993182;28;20064;-47
2023/10/06 05:25:40;;;;;;;17.38;8.13;;;14.10;99.90;;;;;;5029244;28;20053;-46
2023/10/06 05:28:16;;;;;;;20.23;7.85;;;14.10;99.90;;;;;;5011632;28;20103;-44
2023/10/06 05:30:43;;;;;;;19.60;8.90;;;14.20;99.90;;;;;;5011918;28;20088;-47
2023/10/06 05:33:09;;;;;;;15.77;8.93;;;14.20;99.90;;;;;;4987375;28;20121;-46
2023/10/06 05:35:38;;;;;;;23.98;9.68;;;14.20;99.90;;;;;;5020432;28;20745;-44
2023/10/06 05:38:08;;;;;;;22.27;8.98;;;14.20;99.90;;;;;;5021339;28;20452;-47
2023/10/06 05:40:34;;;;;;;17.02;9.48;;;14.20;99.90;;;;;;5021129;28;20519;-45
2023/10/06 05:43:02;;;;;;;16.27;9.23;;;14.30;99.90;;;;;;5024266;28;20157;-46
2023/10/06 05:45:29;;;;;;;20.08;9.23;;;14.30;99.90;;;;;;5022125;28;20164;-45
2023/10/06 05:47:58;;;;;;;18.13;8.30;;;14.30;99.90;;;;;;4986669;28;20065;-48
2023/10/06 05:50:28;;;;;;;19.33;9.15;;;14.30;99.90;;;;;;5003191;28;20602;-44
2023/10/06 05:52:57;;;;;;;20.35;8.00;;;14.40;99.90;;;;;;5020746;28;20128;-46
2023/10/06 05:55:24;;;;;;;19.50;8.85;;;14.40;99.90;;;;;;5019347;28;20045;-45
2023/10/06 05:57:55;;;;;;;20.23;8.85;;;14.40;99.90;;;;;;4986791;28;20092;-46
2023/10/06 06:00:25;;;;;;;18.25;9.23;;;14.40;99.90;;;;;;5008471;28;20457;-46
2023/10/06 06:02:52;;;;;;;17.75;8.15;;;14.40;99.90;;;;;;4993979;28;20447;-44
2023/10/06 06:05:18;;;;;;;15.90;8.27;;;14.40;99.90;;;;;;5001738;28;20060;-47
2023/10/06 06:07:43;;;;;;;20.48;8.73;;;14.50;99.90;;;;;;5019058;28;20049;-45
2023/10/06 06:10:13;;;;;;;16.92;8.13;;;14.50;99.90;;;;;;5002823;28;20132;-49
2023/10/06 06:12:42;;;;;;;15.52;8.88;;;14.50;99.90;;;;;;5020813;28;20076;-46
2023/10/06 06:15:09;;;;;;;19.77;9.40;;;14.50;99.90;;;;;;5002506;28;20049;-49
2023/10/06 06:17:36;;;;;;;16.95;8.45;;;14.50;99.90;;;;;;5036299;28;20124;-45
2023/10/06 06:20:02;;;;;;;18.17;9.25;;;14.50;99.90;;;;;;5036069;28;20176;-46
2023/10/06 06:22:29;;;;;;;16.00;8.65;;;14.50;99.90;;;;;;5021063;28;20606;-46
2023/10/06 06:24:55;;;;;;;24.27;9.25;;;14.50;99.90;;;;;;5019732;28;20045;-47
2023/10/06 06:27:22;;;;;;;21.88;8.82;;;14.40;99.90;;;;;;5003015;28;20045;-48
2023/10/06 06:29:49;;;;;;;20.88;9.77;;;14.40;99.90;;;;;;5020047;28;20508;-48
2023/10/06 06:32:17;;;;;;;19.95;8.00;;;14.40;99.90;;;;;;5001975;28;20362;-45
2023/10/06 06:34:42;;;;;;;18.80;9.52;;;14.40;99.90;;;;;;5019474;28;20075;-45
2023/10/06 06:37:13;;;;;;;17.25;9.30;;;14.40;99.90;;;;;;5001998;28;20052;-45
2023/10/06 06:39:42;;;;;;;15.25;8.80;;;14.50;99.90;;;;;;5019842;28;20543;-44
2023/10/06 06:42:08;;;;;;;18.95;9.27;;;14.50;99.90;;;;;;5019063;28;20510;-44
2023/10/06 06:44:36;;;;;;;19.40;10.23;;;14.50;99.90;;;;;;5019591;28;20040;-45
2023/10/06 06:47:02;;;;;;;21.10;11.27;;;14.50;99.90;;;;;;4985161;28;20409;-46
2023/10/06 06:49:28;;;;;;;20.50;9.32;;;14.60;99.90;;;;;;5019784;28;20407;-46
2023/10/06 06:51:53;;;;;;;22.45;9.18;;;14.60;99.90;;;;;;5019612;28;20041;-45
2023/10/06 06:54:19;;;;;;;19.92;8.90;;;14.60;99.90;;;;;;5019436;28;20119;-45
2023/10/06 06:56:47;;;;;;;20.88;9.73;;;14.70;99.90;;;;;;5019419;28;20232;-45
2023/10/06 06:59:13;;;;;;;15.88;9.32;;;14.70;99.90;;;;;;5019959;28;20151;-45
2023/10/06 07:01:38;;;;;;;17.30;9.38;;;14.60;99.90;;;;;;5019464;28;20034;-44
2023/10/06 07:04:06;;;;;;;20.70;9.00;;;14.60;99.90;;;;;;4985007;28;20045;-45
2023/10/06 07:06:31;;;;;;;18.88;9.30;;;14.70;99.90;;;;;;4984360;28;20041;-44
2023/10/06 07:08:57;;;;;;;19.25;9.57;;;14.70;99.90;;;;;;5006389;28;20603;-45
2023/10/06 07:11:23;;;;;;;17.52;10.45;;;14.70;99.90;;;;;;4985201;28;20076;-46
2023/10/06 07:13:48;;;;;;;20.33;10.95;;;14.70;99.90;;;;;;5001246;28;20045;-45
2023/10/06 07:16:14;;;;;;;21.13;9.63;;;14.70;99.90;;;;;;5018395;28;20041;-45
2023/10/06 07:18:40;;;;;;;26.48;10.48;;;14.70;99.90;;;;;;5001656;28;20041;-46
2023/10/06 07:21:10;;;;;;;17.60;9.93;;;14.70;99.90;;;;;;5019317;28;20053;-47
2023/10/06 07:23:37;;;;;;;18.50;10.20;;;14.70;99.90;;;;;;5019650;28;20056;-45
2023/10/06 07:26:13;;;;;;;21.25;11.15;;;14.80;99.90;;;;;;5000281;28;20053;-47
2023/10/06 07:28:39;;;;;;;20.73;11.63;;;14.80;99.90;;;;;;5016703;28;20049;-47
2023/10/06 07:31:10;;;;;;;21.77;10.52;;;14.90;99.90;;;;;;5019072;28;20049;-45
2023/10/06 07:33:36;;;;;;;23.48;10.52;;;14.90;99.90;;;;;;5019706;28;20111;-45
2023/10/06 07:36:12;;;;;;;25.98;12.95;;;14.90;99.90;;;;;;5000943;28;20049;-46
2023/10/06 07:38:38;;;;;;;26.85;11.77;;;14.90;99.90;;;;;;5018993;28;20048;-45
2023/10/06 07:41:05;;;;;;;25.42;12.65;;;14.90;99.90;;;;;;5019150;28;20049;-47
2023/10/06 07:43:31;;;;;;;25.90;12.20;;;14.90;99.90;;;;;;5001279;28;20133;-47
2023/10/06 07:45:58;;;;;;;24.63;11.32;;;14.90;99.90;;;;;;5018031;28;20041;-46
2023/10/06 07:48:24;;;;;;;26.38;12.20;;;15.00;99.90;;;;;;5019291;28;20056;-45
2023/10/06 07:50:51;;;;;;;23.00;12.10;;;15.00;99.90;;;;;;5019754;28;20041;-47
2023/10/06 07:53:17;;;;;;;28.77;12.73;;;15.00;99.90;;;;;;5019228;28;20535;-44
2023/10/06 07:55:43;;;;;;;24.23;13.00;;;15.10;99.90;;;;;;5018381;28;20529;-44
2023/10/06 07:58:08;;;;;;;28.00;12.27;;;15.20;99.90;;;;;;5001503;28;20804;-43
2023/10/06 08:00:38;;;;;;;24.23;11.77;;;15.20;99.90;;;;;;5019193;28;20136;-44
2023/10/06 08:03:04;;;;;;;19.10;10.48;;;15.40;99.90;;;;;;5010575;28;20147;-44
2023/10/06 08:05:30;;;;;;;16.63;10.60;;;15.40;99.90;;;;;;4984084;28;20231;-44
2023/10/06 08:07:58;;;;;;;21.38;10.75;;;15.50;99.90;;;;;;5019057;28;20591;-45
2023/10/06 08:10:24;;;;;;;23.45;11.60;;;15.50;99.90;;;;;;5001668;28;20041;-45
2023/10/06 08:12:51;;;;;;;16.38;10.85;;;15.60;99.90;;;;;;5018718;28;20123;-46
2023/10/06 08:15:21;;;;;;;18.20;10.88;;;15.70;99.90;;;;;;5018314;28;20053;-44
2023/10/06 08:17:53;;;;;;;27.40;11.48;;;15.80;99.90;;;;;;5000851;28;20045;-44
2023/10/06 08:20:20;;;;;;;20.98;11.82;;;15.90;99.90;;;;;;5001247;28;20076;-44
2023/10/06 08:22:49;;;;;;;19.95;10.60;;;15.90;99.90;;;;;;4985423;28;20084;-45
2023/10/06 08:25:18;;;;;;;18.50;10.93;;;15.80;99.90;;;;;;5000700;28;20045;-45
2023/10/06 08:27:45;;;;;;;27.58;11.65;;;15.80;99.90;;;;;;5019105;28;20056;-44
2023/10/06 08:30:21;;;;;;;19.25;10.77;;;15.80;99.90;;;;;;5014415;28;20527;-44
2023/10/06 08:32:54;;;;;;;20.23;10.40;;;15.80;99.90;;;;;;5018869;28;20118;-44
2023/10/06 08:35:20;;;;;;;19.17;10.50;;;15.80;99.90;;;;;;5015887;28;20045;-45
2023/10/06 08:37:48;;;;;;;20.60;10.85;;;15.80;99.90;;;;;;5018223;28;20033;-44
2023/10/06 08:40:16;;;;;;;25.52;10.63;;;15.80;99.90;;;;;;5002021;28;20064;-45
2023/10/06 08:42:58;;;;;;;20.52;9.80;;;15.80;99.90;;;;;;5000221;28;20049;-44
2023/10/06 08:45:27;;;;;;;23.35;10.65;;;15.80;99.90;;;;;;5015684;28;20049;-44
2023/10/06 08:47:58;;;;;;;17.42;10.40;;;15.80;99.90;;;;;;5018497;28;20052;-48
2023/10/06 08:50:27;;;;;;;16.05;10.13;;;15.80;99.90;;;;;;4985524;28;20373;-44
2023/10/06 08:52:54;;;;;;;19.02;10.32;;;15.90;99.90;;;;;;5000515;28;20049;-45
2023/10/06 08:55:20;;;;;;;22.30;11.63;;;15.90;99.90;;;;;;5000926;28;20041;-44
2023/10/06 08:57:47;;;;;;;20.67;10.63;;;16.00;99.90;;;;;;5001023;28;20046;-45
2023/10/06 09:00:22;;;;;;;17.73;9.55;;;16.00;99.90;;;;;;5017039;28;20614;-45
2023/10/06 09:02:52;;;;;;;16.88;10.52;;;16.00;99.90;;;;;;4987895;28;20087;-45
2023/10/06 09:05:21;;;;;;;17.75;9.35;;;16.00;99.90;;;;;;5018258;28;20045;-47
2023/10/06 09:08:04;;;;;;;19.10;10.55;;;16.00;99.90;;;;;;5012845;28;20630;-44
2023/10/06 09:10:34;;;;;;;18.30;9.52;;;16.10;99.90;;;;;;5017603;28;20115;-45
2023/10/06 09:13:05;;;;;;;24.52;10.55;;;16.20;99.90;;;;;;5016308;28;20056;-44
2023/10/06 09:15:32;;;;;;;16.40;9.35;;;16.30;99.90;;;;;;5017976;28;20113;-45
2023/10/06 09:17:59;;;;;;;17.33;9.63;;;16.30;99.90;;;;;;5018292;28;20056;-43
2023/10/06 09:20:30;;;;;;;27.92;11.30;;;16.30;99.90;;;;;;5009974;28;20048;-44
2023/10/06 09:22:56;;;;;;;20.77;10.57;;;16.30;99.90;;;;;;4954787;28;20053;-47
2023/10/06 09:25:21;;;;;;;16.77;8.68;;;16.30;99.90;;;;;;5009862;28;20081;-44
2023/10/06 09:27:48;;;;;;;22.38;9.32;;;16.40;99.90;;;;;;5016654;28;20057;-45
2023/10/06 09:30:20;;;;;;;20.58;10.55;;;16.40;99.90;;;;;;5018404;28;20168;-44
2023/10/06 09:32:46;;;;;;;20.48;9.73;;;16.40;99.90;;;;;;5020526;28;20041;-45
2023/10/06 09:35:22;;;;;;;19.58;9.35;;;16.50;99.90;;;;;;5019078;28;20046;-44
2023/10/06 09:37:51;;;;;;;19.60;8.88;;;16.50;99.90;;;;;;5002119;28;20495;-45
2023/10/06 09:40:22;;;;;;;18.48;9.38;;;16.60;99.90;;;;;;5002422;28;20049;-47
2023/10/06 09:42:50;;;;;;;20.05;9.20;;;16.60;99.90;;;;;;5003318;28;20045;-44
2023/10/06 09:45:21;;;;;;;17.83;8.85;;;16.70;99.90;;;;;;5002188;28;20049;-45
2023/10/06 09:47:54;;;;;;;22.38;9.15;;;16.80;99.90;;;;;;4987049;28;20041;-46
2023/10/06 09:50:21;;;;;;;23.10;8.90;;;16.80;99.90;;;;;;5003523;28;20542;-45
2023/10/06 09:52:50;;;;;;;22.00;8.38;;;16.90;99.90;;;;;;5021483;28;20484;-44
2023/10/06 09:55:20;;;;;;;16.55;7.82;;;17.00;99.90;;;;;;5020651;28;20083;-44
2023/10/06 09:57:52;;;;;;;18.70;8.43;;;17.10;99.90;;;;;;5021111;28;20107;-45
2023/10/06 10:00:19;;;;;;;22.10;8.90;;;17.20;99.90;;;;;;5021634;28;20041;-44
2023/10/06 10:02:47;;;;;;;20.92;9.00;;;17.20;99.90;;;;;;4994959;28;20504;-44
2023/10/06 10:05:20;;;;;;;16.95;7.70;;;17.10;99.90;;;;;;5002120;28;20516;-44
2023/10/06 10:07:48;;;;;;;16.17;7.65;;;17.20;99.90;;;;;;5021179;28;20049;-44
2023/10/06 10:10:14;;;;;;;18.48;9.38;;;17.20;99.90;;;;;;5003094;28;20041;-44
2023/10/06 10:12:52;;;;;;;18.10;8.25;;;17.30;99.90;;;;;;5020816;28;20077;-44
2023/10/06 10:15:58;;;;;;;15.10;8.00;;;17.30;99.90;;;;;;5002716;28;20102;-44
2023/10/06 10:18:50;;;;;;;21.80;7.88;;;17.40;99.90;;;;;;5020992;28;20079;-44
2023/10/06 10:21:17;;;;;;;18.60;8.10;;;17.50;99.90;;;;;;4999888;28;20049;-45
2023/10/06 10:23:45;;;;;;;19.40;7.70;;;17.50;99.90;;;;;;5020647;28;20156;-44
2023/10/06 10:26:18;;;;;;;16.13;7.90;;;17.50;99.90;;;;;;5021668;28;20041;-43
2023/10/06 10:29:03;;;;;;;;;;;17.60;99.90;;;;;;5021809;28;20836;-46
2023/10/06 10:31:36;;;;;;;19.67;7.35;;;17.70;99.90;;;;;;4987280;28;20365;-45
2023/10/06 10:34:02;;;;;;;15.25;8.32;;;17.60;99.90;;;;;;4986431;28;20041;-44
2023/10/06 10:36:27;;;;;;;21.92;7.57;;;17.60;99.90;;;;;;5021586;28;20364;-44
2023/10/06 10:38:59;;;;;;;18.88;6.82;;;17.70;99.90;;;;;;5021324;28;20041;-45
2023/10/06 10:41:29;;;;;;;17.25;7.40;;;17.70;99.90;;;;;;5021209;28;20073;-45
2023/10/06 10:43:56;;;;;;;18.88;6.20;;;17.70;99.90;;;;;;5020007;28;20046;-47
2023/10/06 10:46:33;;;;;;;20.60;7.68;;;17.80;99.90;;;;;;5021384;28;20054;-45
2023/10/06 10:49:01;;;;;;;14.93;6.78;;;18.00;99.90;;;;;;5002869;28;20489;-45
2023/10/06 10:51:33;;;;;;;15.70;6.45;;;18.10;99.90;;;;;;5002885;28;20586;-45
2023/10/06 10:53:59;;;;;;;23.05;6.75;;;18.20;99.90;;;;;;5002405;28;20052;-48
2023/10/06 10:56:34;;;;;;;21.27;7.15;;;18.20;99.90;;;;;;5020932;28;20052;-45
2023/10/06 10:59:00;;;;;;;20.10;7.18;;;18.30;99.90;;;;;;5020932;28;20112;-45
2023/10/06 11:01:35;;;;;;;14.45;5.70;;;18.30;99.90;;;;;;5002890;28;20790;-44
2023/10/06 11:04:14;;;;;;;17.67;6.72;;;18.40;99.90;;;;;;5011175;28;20045;-45
2023/10/06 11:06:40;;;;;;;21.98;5.78;;;18.50;99.90;;;;;;5019815;28;20045;-45
2023/10/06 11:09:26;;;;;;;19.23;6.38;;;18.50;99.90;;;;;;5020208;28;20041;-44
2023/10/06 11:11:58;;;;;;;16.90;6.28;;;18.50;99.90;;;;;;5019215;28;20120;-45
2023/10/06 11:14:25;;;;;;;18.00;6.65;;;18.50;99.90;;;;;;5018890;28;20037;-45
2023/10/06 11:16:52;;;;;;;15.68;5.65;;;18.50;99.90;;;;;;5020141;28;20049;-45
2023/10/06 11:19:18;;;;;;;18.60;5.95;;;18.50;99.90;;;;;;5020549;28;20060;-44
2023/10/06 11:21:44;;;;;;;22.08;6.53;;;18.60;99.90;;;;;;5020728;28;20388;-46
2023/10/06 11:24:10;;;;;;;19.35;5.15;;;18.50;99.90;;;;;;5019565;28;20053;-47
2023/10/06 11:26:36;;;;;;;16.67;6.32;;;18.60;99.90;;;;;;5020862;28;20049;-45
2023/10/06 11:29:03;;;;;;;14.57;5.60;;;18.60;99.90;;;;;;5020611;28;20065;-45
2023/10/06 11:31:29;;;;;;;18.85;6.10;;;18.70;99.90;;;;;;5020460;28;20148;-48
2023/10/06 11:33:56;;;;;;;14.93;6.25;;;18.70;99.90;;;;;;5019627;28;20356;-46
2023/10/06 11:36:22;;;;;;;16.70;5.43;;;18.70;99.90;;;;;;5020580;28;20124;-46
2023/10/06 11:38:48;;;;;;;23.95;5.65;;;18.70;99.90;;;;;;5002331;28;20053;-46
2023/10/06 11:41:24;;;;;;;21.15;5.68;;;18.80;99.90;;;;;;5020195;28;20064;-47
2023/10/06 11:43:54;;;;;;;20.30;5.00;;;18.80;99.90;;;;;;5018347;28;20041;-45
2023/10/06 11:46:19;;;;;;;19.00;5.82;;;18.80;99.90;;;;;;5001632;28;20046;-45
2023/10/06 11:48:45;;;;;;;17.15;4.93;;;18.80;99.90;;;;;;5001258;28;20503;-45
2023/10/06 11:51:12;;;;;;;16.00;5.28;;;18.80;99.90;;;;;;4998735;28;20072;-47
2023/10/06 11:53:40;;;;;;;14.57;4.53;;;18.80;99.90;;;;;;5018718;28;20352;-48
2023/10/06 11:56:13;;;;;;;22.20;5.95;;;18.80;99.90;;;;;;5019298;28;20863;-47
2023/10/06 11:58:41;;;;;;;;;;;18.80;99.90;;;;;;5020499;28;20108;-46
2023/10/06 12:01:33;;;;;;;14.77;4.30;;;18.80;99.90;;;;;;5019689;28;19921;-45
2023/10/06 12:04:04;;;;;;;18.52;5.68;;;18.90;99.90;;;;;;5010685;28;20088;-47
2023/10/06 12:06:40;;;;;;;16.88;5.03;;;18.90;99.90;;;;;;5002059;28;20057;-48
2023/10/06 12:09:08;;;;;;;17.33;5.07;;;18.90;99.90;;;;;;5020105;28;20052;-45
2023/10/06 12:11:34;;;;;;;16.40;4.80;;;19.00;99.90;;;;;;5001889;28;20049;-47
2023/10/06 12:13:59;;;;;;;20.73;4.70;;;18.90;99.90;;;;;;5019055;28;20044;-45
2023/10/06 12:16:25;;;;;;;23.58;5.60;;;18.90;99.90;;;;;;5001464;28;20034;-47
2023/10/06 12:18:51;;;;;;;22.10;6.15;;;18.80;99.90;;;;;;5019574;28;20100;-49
2023/10/06 12:21:17;;;;;;;20.60;5.13;;;18.90;99.90;;;;;;5001644;28;20087;-48
2023/10/06 12:23:44;;;;;;;20.10;6.05;;;19.00;99.90;;;;;;5000935;28;20248;-46
2023/10/06 12:26:10;;;;;;;20.48;5.65;;;19.10;99.90;;;;;;5019313;28;20057;-49
2023/10/06 12:28:38;;;;;;;14.73;5.30;;;19.10;99.90;;;;;;5019431;28;20053;-49
2023/10/06 12:31:05;;;;;;;16.45;5.60;;;19.20;99.90;;;;;;5001391;28;20142;-48
2023/10/06 12:33:32;;;;;;;20.35;5.95;;;19.20;99.90;;;;;;5018783;28;20148;-47
2023/10/06 12:35:58;;;;;;;15.93;5.53;;;19.20;99.90;;;;;;5001501;28;20087;-47
2023/10/06 12:38:26;;;;;;;20.05;5.85;;;19.20;99.90;;;;;;5019681;28;20053;-49
2023/10/06 12:40:53;;;;;;;21.30;5.53;;;19.20;99.90;;;;;;5020421;28;20555;-50
2023/10/06 12:43:22;;;;;;;16.50;5.05;;;19.10;99.90;;;;;;5002064;28;20049;-47
2023/10/06 12:45:48;;;;;;;17.63;6.47;;;19.10;99.90;;;;;;5020166;28;20113;-46
2023/10/06 12:48:14;;;;;;;21.30;5.88;;;19.00;99.90;;;;;;4985760;28;20418;-47
2023/10/06 12:50:43;;;;;;;18.92;5.50;;;19.00;99.90;;;;;;5001809;28;20056;-47
2023/10/06 12:53:10;;;;;;;14.77;5.65;;;19.00;99.90;;;;;;5019899;28;20535;-46
2023/10/06 12:55:36;;;;;;;13.35;5.32;;;18.90;99.90;;;;;;5019039;28;20029;-45
2023/10/06 12:58:03;;;;;;;18.55;5.72;;;18.90;99.90;;;;;;5019531;28;20128;-47
2023/10/06 13:00:30;;;;;;;13.80;5.03;;;18.90;99.90;;;;;;5019947;28;20045;-48
2023/10/06 13:02:56;;;;;;;14.85;5.43;;;19.00;99.90;;;;;;5011197;28;20153;-46
2023/10/06 13:05:22;;;;;;;18.63;4.68;;;19.00;99.90;;;;;;5004089;28;20049;-47
2023/10/06 13:07:51;;;;;;;16.98;5.05;;;19.20;99.90;;;;;;5023680;28;20037;-46
2023/10/06 13:10:22;;;;;;;19.75;6.22;;;19.30;99.90;;;;;;5023329;28;20519;-46
2023/10/06 13:12:48;;;;;;;11.50;4.43;;;19.50;99.90;;;;;;5006260;28;20045;-45
2023/10/06 13:15:19;;;;;;;18.65;5.72;;;19.70;99.90;;;;;;5005456;28;20042;-47
2023/10/06 13:17:46;;;;;;;16.10;4.45;;;19.80;99.90;;;;;;5005853;28;20503;-46
2023/10/06 13:20:16;;;;;;;17.65;5.00;;;19.90;99.90;;;;;;5005621;28;20045;-47
2023/10/06 13:22:44;;;;;;;16.63;4.90;;;20.00;99.90;;;;;;5023693;28;20083;-47
2023/10/06 13:25:11;;;;;;;16.42;5.60;;;20.00;99.90;;;;;;5022824;28;20048;-45
2023/10/06 13:27:47;;;;;;;20.77;4.75;;;20.00;99.90;;;;;;5023653;28;20084;-47
2023/10/06 13:30:13;;;;;;;15.23;4.47;;;20.00;99.90;;;;;;5007947;28;20089;-46
2023/10/06 13:32:47;;;;;;;19.30;5.55;;;19.90;99.90;;;;;;5010478;28;20081;-47
2023/10/06 13:35:16;;;;;;;14.45;5.05;;;19.90;99.90;;;;;;5015906;28;20503;-46
2023/10/06 13:37:42;;;;;;;18.85;6.13;;;19.90;99.90;;;;;;5003850;28;20045;-47
2023/10/06 13:40:12;;;;;;;16.02;4.78;;;19.80;99.90;;;;;;5003746;28;20053;-46
2023/10/06 13:42:45;;;;;;;17.13;5.20;;;19.80;99.90;;;;;;5029245;28;20501;-46
2023/10/06 13:45:25;;;;;;;14.23;4.65;;;19.80;99.90;;;;;;5021216;28;20121;-46
2023/10/06 13:47:54;;;;;;;15.15;5.05;;;19.70;99.90;;;;;;5037402;28;20080;-46
2023/10/06 13:50:27;;;;;;;12.48;4.47;;;19.70;99.90;;;;;;5022136;28;20049;-45